Latest Weather Observations for Hartz Mountains

IDT60801

Issued at 11:02 am EDT Tuesday 12 December 2017 (issued every 30 minutes, with the page automatically refreshed every 10 minutes)

About weather observations | Map of weather stations | Latest weather observations for TAS | Other Formats
Station Details ID: 094191 Name: HARTZ MOUNTAIN (KEOGHS PIMPLE) Lat: -43.20 Lon: 146.77 Height: 831.0 m
Data from the previous 72 hours. | See also: Recent months at Hartz Mountains
Date/Time
EDT
Temp
°C
App
Temp
°C
Dew
Point
°C
Rel
Hum
%
Delta-T
°C
Wind Press
QNH
hPa
Press
MSL
hPa
Rain since
9am
mm
Dir  Spd
km/h
Gust
km/h
Spd
kts
Gust
kts
12/11:00am 13.2 6.4 10.6 84 1.4 W 37 54 20 29 - - 0.0
12/10:53am 13.0 6.7 9.6 80 1.8 W 33 54 18 29 - - 0.0
12/10:30am 12.1 5.9 9.5 84 1.4 W 32 46 17 25 - - 0.0
12/10:02am 11.1 4.2 9.0 87 1.1 W 35 54 19 29 - - 0.0
12/10:00am 11.3 4.4 8.9 85 1.2 W 35 50 19 27 - - 0.0
12/09:40am 10.8 3.9 8.9 88 1.0 W 35 54 19 29 - - 0.0
12/09:30am 10.6 3.7 9.0 90 0.8 W 35 50 19 27 - - 0.0
12/09:06am 10.2 1.8 9.0 92 0.6 W 43 61 23 33 - - 0.0
12/09:00am 10.1 1.0 8.5 90 0.8 W 46 63 25 34 - - 0.4
12/08:30am 9.0 -0.8 8.6 97 0.2 W 50 65 27 35 - - 0.4
12/08:01am 8.8 -1.1 8.4 97 0.2 W 50 69 27 37 - - 0.4
12/08:00am 8.8 -1.4 8.4 97 0.2 W 52 69 28 37 - - 0.4
12/07:58am 8.9 -0.9 8.5 97 0.2 W 50 69 27 37 - - 0.4
12/07:30am 8.9 -1.2 8.8 99 0.1 W 52 67 28 36 - - 0.4
12/07:13am 8.5 -0.6 8.4 99 0.1 W 46 65 25 35 - - 0.4
12/07:00am 8.5 -0.6 8.4 99 0.1 W 46 61 25 33 - - 0.4
12/06:30am 8.3 -0.3 8.2 99 0.1 W 43 59 23 32 - - 0.4
12/06:00am 8.2 0.0 8.1 99 0.1 W 41 59 22 32 - - 0.4
12/05:55am 8.2 0.0 8.1 99 0.1 W 41 59 22 32 - - 0.4
12/05:30am 8.0 0.1 7.9 99 0.0 W 39 50 21 27 - - 0.4
12/05:00am 8.1 0.6 8.0 99 0.0 WNW 37 56 20 30 - - 0.4
12/04:40am 8.1 2.3 8.0 99 0.0 WNW 28 48 15 26 - - 0.4
12/04:30am 8.1 2.7 8.0 99 0.0 WNW 26 41 14 22 - - 0.4
12/04:10am 8.0 2.2 7.9 99 0.0 W 28 46 15 25 - - 0.4
12/04:00am 8.0 1.8 7.9 99 0.0 W 30 39 16 21 - - 0.4
12/03:30am 7.8 0.2 7.7 99 0.0 W 37 52 20 28 - - 0.4
12/03:00am 7.7 0.5 7.6 99 0.0 WSW 35 57 19 31 - - 0.4
12/02:57am 7.7 -0.3 7.6 99 0.0 W 39 57 21 31 - - 0.4
12/02:30am 7.7 -1.0 7.6 99 0.0 W 43 56 23 30 - - 0.4
12/02:00am 7.6 -3.2 7.5 99 0.0 W 54 65 29 35 - - 0.4
12/01:30am 7.6 -1.2 7.3 98 0.1 W 43 59 23 32 - - 0.4
12/01:00am 7.5 -1.9 7.2 98 0.1 W 46 56 25 30 - - 0.4
12/12:30am 7.6 -1.8 7.3 98 0.1 W 46 59 25 32 - - 0.4
12/12:08am 7.7 -0.3 7.3 97 0.2 WSW 39 57 21 31 - - 0.4
12/12:00am 7.7 -1.3 7.3 97 0.2 W 44 59 24 32 - - 0.4
 
Date/Time
EDT
Temp
°C
App
Temp
°C
Dew
Point
°C
Rel
Hum
%
Delta-T
°C
Wind Press
QNH
hPa
Press
MSL
hPa
Rain since
9am
mm
Dir  Spd
km/h
Gust
km/h
Spd
kts
Gust
kts
11/11:30pm 7.6 -1.2 7.3 98 0.1 W 43 56 23 30 - - 0.4
11/11:01pm 7.6 -1.4 7.3 98 0.1 WSW 44 63 24 34 - - 0.4
11/11:00pm 7.6 -1.8 7.3 98 0.1 WSW 46 63 25 34 - - 0.4
11/10:47pm 7.6 -2.9 7.5 99 0.0 WSW 52 70 28 38 - - 0.4
11/10:30pm 7.8 -2.2 7.7 99 0.0 WSW 50 63 27 34 - - 0.4
11/10:00pm 8.0 -0.3 7.9 99 0.0 WSW 41 52 22 28 - - 0.4
11/09:30pm 8.2 2.4 8.1 99 0.1 W 28 41 15 22 - - 0.4
11/09:00pm 8.3 2.2 8.2 99 0.1 W 30 43 16 23 - - 0.4
11/08:30pm 8.4 0.6 8.3 99 0.1 W 39 50 21 27 - - 0.4
11/08:00pm 8.7 2.1 8.4 98 0.2 W 33 46 18 25 - - 0.4
11/07:30pm 8.8 1.1 8.5 98 0.2 W 39 54 21 29 - - 0.4
11/07:00pm 9.0 2.1 8.7 98 0.2 WNW 35 50 19 27 - - 0.4
11/06:30pm 9.1 3.1 8.8 98 0.2 W 30 48 16 26 - - 0.4
11/06:14pm 9.2 3.3 8.9 98 0.2 WNW 30 48 16 26 - - 0.4
11/06:00pm 9.2 2.3 8.7 97 0.3 W 35 52 19 28 - - 0.4
11/05:35pm 9.4 2.9 8.9 97 0.3 WNW 33 52 18 28 - - 0.4
11/05:30pm 9.4 2.5 8.9 97 0.3 WNW 35 52 19 28 - - 0.4
11/05:00pm 9.4 2.5 8.8 96 0.3 WNW 35 54 19 29 - - 0.4
11/04:30pm 9.8 2.2 8.9 94 0.5 W 39 59 21 32 - - 0.4
11/04:00pm 9.9 3.4 9.0 94 0.5 W 33 52 18 28 - - 0.4
11/03:40pm 9.8 3.2 8.7 93 0.6 WNW 33 54 18 29 - - 0.4
11/03:30pm 10.1 3.3 9.2 94 0.5 WNW 35 44 19 24 - - 0.4
11/03:00pm 10.2 3.4 9.3 94 0.5 W 35 50 19 27 - - 0.4
11/02:31pm 9.9 3.0 9.0 94 0.5 W 35 54 19 29 - - 0.4
11/02:30pm 10.1 2.9 9.3 95 0.4 W 37 54 20 29 - - 0.4
11/02:25pm 10.3 3.2 9.5 95 0.4 W 37 56 20 30 - - 0.4
11/02:00pm 11.1 4.9 9.9 92 0.6 W 33 48 18 26 - - 0.4
11/01:30pm 10.8 4.8 10.0 95 0.4 W 32 44 17 24 - - 0.4
11/01:10pm 11.0 5.8 10.4 96 0.3 W 28 46 15 25 - - 0.4
11/01:00pm 10.8 4.8 10.0 95 0.4 W 32 46 17 25 - - 0.4
11/12:30pm 10.7 4.4 9.8 94 0.5 W 33 48 18 26 - - 0.0
11/12:11pm 11.0 4.4 10.1 94 0.5 W 35 54 19 29 - - 0.0
11/12:00pm 11.3 5.4 10.5 95 0.4 WNW 32 46 17 25 - - 0.0
11/11:30am 11.1 4.6 10.3 95 0.4 WNW 35 50 19 27 - - 0.0
11/11:01am 10.7 4.1 9.9 95 0.4 W 35 56 19 30 - - 0.0
11/11:00am 10.7 4.5 9.9 95 0.4 W 33 48 18 26 - - 0.0
11/10:36am 10.5 3.9 9.9 96 0.3 WNW 35 54 19 29 - - 0.0
11/10:30am 9.9 3.1 9.3 96 0.3 WNW 35 50 19 27 - - 0.0
11/10:00am 9.9 3.1 9.4 97 0.3 WNW 35 54 19 29 - - 0.0
11/09:41am 9.9 3.1 9.4 97 0.3 WNW 35 54 19 29 - - 0.0
11/09:30am 9.3 1.2 8.8 97 0.3 WNW 41 56 22 30 - - 0.0
11/09:04am 9.5 2.4 9.4 99 0.1 W 37 56 20 30 - - 0.0
11/09:00am 9.1 1.5 9.0 99 0.1 W 39 56 21 30 - - 2.0
11/08:37am 8.4 1.4 8.3 99 0.1 W 35 54 19 29 - - 2.0
11/08:30am 8.3 0.9 8.2 99 0.1 W 37 46 20 25 - - 2.0
11/08:00am 8.3 0.9 8.2 99 0.1 W 37 50 20 27 - - 2.0
11/07:30am 8.3 2.2 8.2 99 0.1 WNW 30 43 16 23 - - 2.0
11/07:00am 8.0 2.2 7.9 99 0.0 W 28 41 15 22 - - 1.8
11/06:30am 7.8 1.9 7.7 99 0.0 WNW 28 46 15 25 - - 1.8
11/06:27am 7.8 1.9 7.7 99 0.0 WNW 28 46 15 25 - - 1.8
11/06:00am 7.8 1.6 7.7 99 0.0 WNW 30 41 16 22 - - 1.8
11/05:56am 7.8 1.6 7.7 99 0.0 WNW 30 48 16 26 - - 1.8
11/05:30am 7.9 1.3 7.8 99 0.0 WNW 32 48 17 26 - - 1.4
11/05:23am 7.9 2.1 7.8 99 0.0 WNW 28 48 15 26 - - 1.4
11/05:00am 7.8 3.1 7.7 99 0.0 WNW 22 39 12 21 - - 1.4
11/04:30am 7.8 2.7 7.7 99 0.0 WNW 24 35 13 19 - - 0.8
11/04:00am 7.8 4.0 7.7 99 0.0 NW 17 32 9 17 - - 0.8
11/03:30am 7.8 2.7 7.7 99 0.0 WNW 24 37 13 20 - - 0.6
11/03:00am 7.7 2.6 7.6 99 0.0 WNW 24 35 13 19 - - 0.6
11/02:30am 7.7 2.2 7.6 99 0.0 WNW 26 39 14 21 - - 0.2
11/02:00am 7.6 2.4 7.3 98 0.1 WNW 24 39 13 21 - - 0.2
11/01:30am 7.6 2.4 7.3 98 0.1 NW 24 39 13 21 - - 0.2
11/01:08am 7.5 1.5 7.2 98 0.1 WNW 28 46 15 25 - - 0.2
11/01:00am 7.5 2.3 7.2 98 0.1 WNW 24 33 13 18 - - 0.0
11/12:30am 7.6 2.0 7.2 97 0.2 WNW 26 37 14 20 - - 0.0
11/12:04am 7.6 0.9 7.2 97 0.2 WNW 32 50 17 27 - - 0.0
11/12:00am 7.6 1.3 7.2 97 0.2 W 30 46 16 25 - - 0.0
 
Date/Time
EDT
Temp
°C
App
Temp
°C
Dew
Point
°C
Rel
Hum
%
Delta-T
°C
Wind Press
QNH
hPa
Press
MSL
hPa
Rain since
9am
mm
Dir  Spd
km/h
Gust
km/h
Spd
kts
Gust
kts
10/11:30pm 7.7 0.4 7.3 97 0.2 W 35 56 19 30 - - 0.0
10/11:00pm 7.7 0.4 7.3 97 0.2 W 35 57 19 31 - - 0.0
10/10:31pm 7.9 -0.2 7.1 95 0.4 W 39 57 21 31 - - 0.0
10/10:30pm 7.9 0.2 7.1 95 0.4 W 37 54 20 29 - - 0.0
10/10:00pm 7.9 1.1 7.1 95 0.4 W 32 46 17 25 - - 0.0
10/09:30pm 8.0 2.1 7.4 96 0.3 WNW 28 50 15 27 - - 0.0
10/09:00pm 8.0 0.4 7.6 97 0.2 WNW 37 59 20 32 - - 0.0
10/08:36pm 8.1 0.9 7.5 96 0.3 WNW 35 59 19 32 - - 0.0
10/08:30pm 8.1 0.9 7.5 96 0.3 WNW 35 50 19 27 - - 0.0
10/08:00pm 8.4 0.8 7.5 94 0.4 WNW 37 59 20 32 - - 0.0
10/07:30pm 9.0 1.7 7.3 89 0.8 WNW 35 56 19 30 - - 0.0
10/07:00pm 9.2 0.3 6.8 85 1.2 WNW 43 61 23 33 - - 0.0
10/06:30pm 9.8 0.4 7.1 83 1.3 WNW 46 67 25 36 - - 0.0
10/06:03pm 10.3 0.9 7.0 80 1.6 W 46 70 25 38 - - 0.0
10/06:00pm 10.4 1.0 7.1 80 1.6 W 46 63 25 34 - - 0.0
10/05:30pm 10.7 1.3 7.0 78 1.8 WNW 46 65 25 35 - - 0.0
10/05:00pm 11.2 3.6 7.5 78 1.9 WNW 37 56 20 30 - - 0.0
10/04:30pm 11.5 2.7 7.4 76 2.1 W 43 65 23 35 - - 0.0
10/04:00pm 11.8 3.1 7.7 76 2.1 WNW 43 61 23 33 - - 0.0
10/03:30pm 12.3 4.1 8.0 75 2.2 W 41 61 22 33 - - 0.0
10/03:00pm 11.8 3.1 7.5 75 2.2 WNW 43 69 23 37 - - 0.0
10/02:30pm 12.0 3.2 8.1 77 2.0 WNW 44 65 24 35 - - 0.0
10/02:00pm 11.4 2.7 7.5 77 2.0 WNW 43 63 23 34 - - 0.0
10/01:30pm 11.3 2.6 7.8 79 1.8 WNW 43 69 23 37 - - 0.0
10/01:15pm 10.8 2.0 7.1 78 1.8 WNW 43 74 23 40 - - 0.0
10/01:01pm 11.3 3.9 8.5 83 1.4 WNW 37 56 20 30 - - 0.0
10/01:00pm 11.0 3.2 8.2 83 1.4 WNW 39 56 21 30 - - 0.0
10/12:30pm 11.5 2.8 7.8 78 1.9 WNW 43 70 23 38 - - 0.0
10/12:00pm 11.4 3.0 8.8 84 1.4 W 43 69 23 37 - - 0.0
10/11:30am 11.1 3.6 8.1 82 1.5 W 37 69 20 37 - - 0.0
10/11:00am 10.5 3.5 8.3 86 1.1 WNW 35 59 19 32 - - 0.0
10/10:30am 10.0 1.5 8.6 91 0.7 WNW 43 63 23 34 - - 0.0
10/10:10am 9.9 2.6 8.7 92 0.6 WNW 37 57 20 31 - - 0.0
10/10:00am 9.7 2.8 8.8 94 0.5 W 35 48 19 26 - - 0.0
10/09:30am 9.7 1.9 8.3 91 0.7 WNW 39 61 21 33 - - 0.0
10/09:00am 9.3 0.6 7.9 91 0.7 W 43 61 23 33 - - 0.8
10/08:30am 8.9 0.1 7.4 90 0.7 WNW 43 65 23 35 - - 0.8
10/08:05am 8.8 0.3 6.8 87 1.0 WNW 41 72 22 39 - - 0.8
10/08:00am 8.6 1.2 6.9 89 0.8 WNW 35 52 19 28 - - 0.8
10/07:30am 8.2 0.1 6.8 91 0.7 W 39 65 21 35 - - 0.8
10/07:00am 8.1 -0.8 7.0 93 0.5 W 43 70 23 38 - - 0.8
10/06:30am 7.9 -1.5 7.1 95 0.4 WNW 46 70 25 38 - - 0.8
10/06:00am 8.2 -1.0 6.5 89 0.8 WNW 44 82 24 44 - - 0.8
10/05:30am 8.1 -2.2 6.6 90 0.7 W 50 80 27 43 - - 0.8
10/05:00am 8.1 -1.7 6.9 92 0.6 W 48 72 26 39 - - 0.8
10/04:30am 8.0 -1.8 6.9 93 0.5 WNW 48 74 26 40 - - 0.8
10/04:00am 8.0 -1.5 6.9 93 0.5 W 46 69 25 37 - - 0.8
10/03:30am 8.1 -1.7 6.9 92 0.6 WNW 48 72 26 39 - - 0.8
10/03:00am 8.1 -1.3 7.0 93 0.5 WNW 46 69 25 37 - - 0.8
10/02:30am 8.1 -2.1 6.9 92 0.6 W 50 82 27 44 - - 0.8
10/02:24am 7.9 -1.9 7.0 94 0.4 WNW 48 80 26 43 - - 0.8
10/02:00am 7.8 -1.0 7.1 95 0.3 W 43 61 23 33 - - 0.8
10/01:30am 7.9 -0.7 6.7 92 0.6 W 41 59 22 32 - - 0.8
10/01:00am 7.8 -0.4 6.6 92 0.6 W 39 65 21 35 - - 0.8
10/12:30am 7.7 -1.3 6.3 91 0.7 WNW 43 63 23 34 - - 0.8
10/12:00am 7.8 -1.8 6.3 90 0.7 WNW 46 65 25 35 - - 0.8
 
Date/Time
EDT
Temp
°C
App
Temp
°C
Dew
Point
°C
Rel
Hum
%
Delta-T
°C
Wind Press
QNH
hPa
Press
MSL
hPa
Rain since
9am
mm
Dir  Spd
km/h
Gust
km/h
Spd
kts
Gust
kts
09/11:30pm 7.6 -1.7 5.9 89 0.8 WNW 44 72 24 39 - - 0.8
09/11:07pm 7.4 -1.3 6.0 91 0.7 W 41 59 22 32 - - 0.8
09/11:00pm 7.4 -1.9 6.0 91 0.7 W 44 61 24 33 - - 0.8
09/10:31pm 7.4 -1.7 5.7 89 0.8 W 43 63 23 34 - - 0.8
09/10:30pm 7.4 -1.7 5.7 89 0.8 W 43 59 23 32 - - 0.8
09/10:00pm 7.4 -0.2 5.7 89 0.8 WNW 35 57 19 31 - - 0.8
09/09:30pm 7.4 0.2 5.2 86 1.0 WNW 32 52 17 28 - - 0.8
09/09:18pm 7.5 1.0 4.6 82 1.3 WNW 28 46 15 25 - - 0.8
09/09:00pm 7.5 0.7 5.3 86 1.0 WNW 30 41 16 22 - - 0.8
09/08:38pm 7.8 0.5 5.4 85 1.1 WNW 33 52 18 28 - - 0.8
09/08:30pm 7.9 0.6 5.5 85 1.1 WNW 33 48 18 26 - - 0.8
09/08:00pm 8.2 2.1 4.8 79 1.6 WNW 26 35 14 19 - - 0.8
09/07:30pm 9.2 2.5 5.6 78 1.7 NW 30 44 16 24 - - 0.8
09/07:00pm 9.2 2.9 5.8 79 1.6 WNW 28 46 15 25 - - 0.8
09/06:30pm 8.8 1.4 5.2 78 1.7 WNW 33 54 18 29 - - 0.8
09/06:00pm 9.5 1.7 4.9 73 2.2 WNW 35 61 19 33 - - 0.8
09/05:30pm 10.2 2.9 5.4 72 2.3 WNW 33 59 18 32 - - 0.8
09/05:00pm 11.3 4.4 6.4 72 2.4 WNW 32 56 17 30 - - 0.8
09/04:30pm 10.9 3.0 4.1 63 3.2 WNW 35 82 19 44 - - 0.8
09/04:00pm 10.8 1.1 5.8 71 2.4 WNW 46 83 25 45 - - 0.8
09/03:54pm 10.1 2.0 5.1 71 2.4 WNW 37 69 20 37 - - 0.8
09/03:34pm 9.7 2.9 5.1 73 2.2 W 30 56 16 30 - - 0.8
09/03:30pm 9.8 2.9 6.3 79 1.7 W 32 56 17 30 - - 0.8
09/03:00pm 10.0 2.5 6.3 78 1.8 WNW 35 67 19 36 - - 0.8
09/02:35pm 9.6 1.8 5.0 73 2.2 WNW 35 78 19 42 - - 0.8
09/02:30pm 9.6 2.4 6.0 78 1.7 WNW 33 54 18 29 - - 0.8
09/02:00pm 9.5 1.6 6.0 79 1.7 WNW 37 65 20 35 - - 0.8
09/01:30pm 9.5 1.4 6.9 84 1.3 WNW 39 65 21 35 - - 0.8
09/01:00pm 8.8 -0.9 7.6 92 0.6 W 48 91 26 49 - - 0.6
09/12:34pm 8.5 -1.9 7.6 94 0.4 W 52 102 28 55 - - 0.6
09/12:30pm 8.4 -1.7 7.5 94 0.4 W 50 82 27 44 - - 0.6
09/12:00pm 8.5 -1.5 7.9 96 0.3 WSW 50 83 27 45 - - 0.6
09/11:56am 8.3 -1.8 7.5 95 0.4 WSW 50 83 27 45 - - 0.6
09/11:32am 8.5 0.2 7.9 96 0.3 WSW 41 69 22 37 - - 0.6
09/11:30am 8.5 0.6 7.9 96 0.3 WSW 39 78 21 42 - - 0.6
09/11:28am 8.7 1.6 8.1 96 0.3 W 35 78 19 42 - - 0.6

Other Formats:

Comma delimited format used in spreadsheet applications
http://www.bom.gov.au/fwo/IDT60801/IDT60801.94977.axf

JavaScript Object Notation format (JSON) in row-major order
http://www.bom.gov.au/fwo/IDT60801/IDT60801.94977.json